Time;durP1;ratioP1;P1;durP2;ratioP2;P2;SDS_P1;SDS_P2;PMS_P1;PMS_P2;Temp;Humidity;BMP_temperature;BMP_pressure;BME280_temperature;BME280_humidity;BME280_pressure;Samples;Min_cycle;Max_cycle;Signal;HPM_P1;HPM_P2
2022/09/21 00:01:15;;;;;;;3.83;1.73;;;9.20;99.90;;;;;;4975677;28;20082;-75
2022/09/21 00:03:42;;;;;;;3.55;1.50;;;9.00;99.90;;;;;;4975850;28;20093;-75
2022/09/21 00:06:11;;;;;;;3.25;1.52;;;9.10;99.90;;;;;;4975408;28;20056;-75
2022/09/21 00:08:37;;;;;;;4.07;1.55;;;9.00;99.90;;;;;;4975832;28;20043;-75
2022/09/21 00:11:04;;;;;;;1.90;1.25;;;9.00;99.90;;;;;;4975757;28;20058;-76
2022/09/21 00:13:32;;;;;;;2.78;1.42;;;9.00;99.90;;;;;;4975431;28;20506;-75
2022/09/21 00:15:58;;;;;;;2.85;1.30;;;9.00;99.90;;;;;;4958655;28;20105;-76
2022/09/21 00:18:25;;;;;;;2.22;1.40;;;9.00;99.90;;;;;;4974438;28;20131;-76
2022/09/21 00:20:53;;;;;;;3.97;1.60;;;8.90;99.90;;;;;;4975851;28;20108;-75
2022/09/21 00:23:19;;;;;;;2.33;1.40;;;9.00;99.90;;;;;;4976055;28;20113;-75
2022/09/21 00:25:45;;;;;;;3.15;1.50;;;8.90;99.90;;;;;;4975503;28;20050;-75
2022/09/21 00:28:12;;;;;;;4.60;1.60;;;9.00;99.90;;;;;;4958367;28;20053;-75
2022/09/21 00:30:38;;;;;;;2.28;1.42;;;8.90;99.90;;;;;;4975465;28;20050;-75
2022/09/21 00:33:04;;;;;;;3.60;1.40;;;9.00;99.90;;;;;;4974197;28;20444;-75
2022/09/21 00:35:30;;;;;;;2.28;1.50;;;8.90;99.90;;;;;;4975132;28;20125;-75
2022/09/21 00:38:00;;;;;;;3.83;1.70;;;8.90;99.90;;;;;;4974901;28;20510;-75
2022/09/21 00:40:26;;;;;;;2.90;1.70;;;8.80;99.90;;;;;;4975366;28;20046;-75
2022/09/21 00:42:51;;;;;;;4.25;1.63;;;8.80;99.90;;;;;;4975235;28;20043;-75
2022/09/21 00:45:20;;;;;;;3.90;1.60;;;8.90;99.90;;;;;;4974236;28;20051;-75
2022/09/21 00:47:50;;;;;;;4.10;1.40;;;8.80;99.90;;;;;;4975140;28;20053;-75
2022/09/21 00:50:22;;;;;;;1.98;1.23;;;8.80;99.90;;;;;;4975056;28;20050;-75
2022/09/21 00:52:54;;;;;;;3.00;1.50;;;8.90;99.90;;;;;;4975219;28;20099;-75
2022/09/21 00:55:32;;;;;;;4.47;1.67;;;8.90;99.90;;;;;;4973434;28;20058;-75
2022/09/21 00:58:04;;;;;;;3.55;1.73;;;9.00;99.90;;;;;;4974979;28;20043;-75
2022/09/21 01:00:30;;;;;;;4.50;1.80;;;8.80;99.90;;;;;;4974340;28;20054;-75
2022/09/21 01:03:00;;;;;;;2.30;1.60;;;8.70;99.90;;;;;;4974879;28;20043;-75
2022/09/21 01:05:27;;;;;;;4.50;1.77;;;8.70;99.90;;;;;;4973708;28;20051;-79
2022/09/21 01:07:56;;;;;;;3.63;1.67;;;8.70;99.90;;;;;;4975077;28;20126;-79
2022/09/21 01:10:24;;;;;;;2.42;1.55;;;8.70;99.90;;;;;;4975066;28;20047;-79
2022/09/21 01:13:10;;;;;;;2.00;1.45;;;8.60;99.90;;;;;;4974106;28;20051;-79
2022/09/21 01:15:52;;;;;;;1.98;1.45;;;8.70;99.90;;;;;;4975156;28;20050;-79
2022/09/21 01:18:21;;;;;;;3.30;1.60;;;8.60;99.90;;;;;;4975812;28;20065;-78
2022/09/21 01:20:59;;;;;;;3.65;1.60;;;8.70;99.90;;;;;;4975099;28;20093;-79
2022/09/21 01:23:38;;;;;;;2.33;1.50;;;8.60;99.90;;;;;;4973660;28;20130;-79
2022/09/21 01:26:18;;;;;;;4.13;1.60;;;8.50;99.90;;;;;;4974731;28;20476;-79
2022/09/21 01:28:59;;;;;;;3.40;1.42;;;8.50;99.90;;;;;;4975133;28;20542;-79
2022/09/21 01:31:32;;;;;;;4.18;1.42;;;8.50;99.90;;;;;;4975723;28;20387;-79
2022/09/21 01:34:04;;;;;;;2.17;1.50;;;8.40;99.90;;;;;;4974519;28;20047;-79
2022/09/21 01:36:32;;;;;;;2.20;1.27;;;8.60;99.90;;;;;;4975039;28;20063;-79
2022/09/21 01:39:10;;;;;;;1.92;1.20;;;8.50;99.90;;;;;;4957778;28;20574;-79
2022/09/21 01:41:39;;;;;;;1.75;1.00;;;8.40;99.90;;;;;;4975366;28;20077;-79
2022/09/21 01:44:13;;;;;;;2.30;1.25;;;8.50;99.90;;;;;;4974655;28;20129;-79
2022/09/21 01:46:39;;;;;;;3.88;1.30;;;8.30;99.90;;;;;;4973641;28;20047;-78
2022/09/21 01:49:11;;;;;;;2.25;1.17;;;8.30;99.90;;;;;;4975231;28;20050;-79
2022/09/21 01:51:42;;;;;;;1.27;1.00;;;8.40;99.90;;;;;;4975283;28;20043;-79
2022/09/21 01:54:13;;;;;;;1.83;1.20;;;8.40;99.90;;;;;;4975443;28;20042;-79
2022/09/21 01:57:20;;;;;;;3.20;1.13;;;8.30;99.90;;;;;;4974645;28;20091;-79
2022/09/21 01:59:56;;;;;;;2.55;1.30;;;8.40;99.90;;;;;;4964028;28;20109;-79
2022/09/21 02:02:47;;;;;;;1.55;1.08;;;8.20;99.90;;;;;;4973346;28;20047;-79
2022/09/21 02:05:15;;;;;;;2.10;1.20;;;8.30;99.90;;;;;;4974896;28;20423;-79
2022/09/21 02:07:41;;;;;;;3.30;1.48;;;8.50;99.90;;;;;;4974619;28;20121;-79
2022/09/21 02:10:12;;;;;;;2.58;1.30;;;8.30;99.90;;;;;;4978197;28;20047;-79
2022/09/21 02:12:39;;;;;;;2.20;1.10;;;8.30;99.90;;;;;;4978158;28;20047;-79
2022/09/21 02:15:06;;;;;;;1.40;1.17;;;8.50;99.90;;;;;;4976575;28;20549;-79
2022/09/21 02:17:55;;;;;;;2.63;1.17;;;8.20;99.90;;;;;;4978242;28;20057;-79
2022/09/21 02:20:31;;;;;;;4.20;1.00;;;8.20;99.90;;;;;;4961212;28;20064;-79
2022/09/21 02:23:02;;;;;;;1.40;1.08;;;8.90;99.90;;;;;;4960879;28;20054;-79
2022/09/21 02:25:57;;;;;;;2.33;1.23;;;8.70;99.90;;;;;;4977872;28;20058;-79
2022/09/21 02:28:46;;;;;;;2.60;0.90;;;8.10;99.90;;;;;;4965683;28;20059;-79
2022/09/21 02:31:29;;;;;;;1.80;1.00;;;8.10;99.90;;;;;;4977655;28;20046;-79
2022/09/21 02:34:16;;;;;;;2.65;1.10;;;8.10;99.90;;;;;;4976839;28;20055;-78
2022/09/21 02:36:47;;;;;;;3.28;0.85;;;8.10;99.90;;;;;;4961467;28;20050;-79
2022/09/21 02:39:20;;;;;;;1.20;0.90;;;8.50;99.90;;;;;;4977626;28;20042;-78
2022/09/21 02:42:11;;;;;;;2.10;1.10;;;8.40;99.90;;;;;;4976517;28;20114;-79
2022/09/21 02:44:46;;;;;;;1.80;1.05;;;8.30;99.90;;;;;;4967767;28;20055;-79
2022/09/21 02:47:24;;;;;;;1.80;1.17;;;8.60;99.90;;;;;;4977531;28;20042;-79
2022/09/21 02:49:57;;;;;;;2.10;0.90;;;8.10;99.90;;;;;;4977586;28;20051;-78
2022/09/21 02:52:27;;;;;;;2.03;0.90;;;8.60;99.90;;;;;;4977428;28;20050;-78
2022/09/21 02:54:53;;;;;;;3.00;1.17;;;8.00;99.90;;;;;;4977352;28;20049;-79
2022/09/21 02:57:22;;;;;;;1.50;1.02;;;8.60;99.90;;;;;;4976257;28;20118;-78
2022/09/21 02:59:48;;;;;;;2.08;1.05;;;8.20;99.90;;;;;;4977767;28;20093;-78
2022/09/21 03:02:14;;;;;;;2.58;1.05;;;8.30;99.90;;;;;;4978087;28;20058;-78
2022/09/21 03:04:41;;;;;;;1.40;1.00;;;8.10;99.90;;;;;;4977257;28;20372;-78
2022/09/21 03:07:07;;;;;;;1.70;1.10;;;8.20;99.90;;;;;;4976089;28;20043;-78
2022/09/21 03:09:34;;;;;;;2.55;0.90;;;8.10;99.90;;;;;;4977118;28;20042;-78
2022/09/21 03:11:59;;;;;;;1.55;1.00;;;8.10;99.90;;;;;;4960330;28;20090;-78
2022/09/21 03:14:25;;;;;;;3.58;1.23;;;7.80;99.90;;;;;;4977368;28;20101;-78
2022/09/21 03:16:51;;;;;;;1.58;1.30;;;8.60;99.90;;;;;;4976138;28;20047;-79
2022/09/21 03:19:17;;;;;;;2.95;1.30;;;8.20;99.90;;;;;;4976728;28;20050;-79
2022/09/21 03:21:42;;;;;;;2.17;1.33;;;8.20;99.90;;;;;;4977366;28;20061;-78
2022/09/21 03:24:08;;;;;;;1.98;1.08;;;7.90;99.90;;;;;;4976854;28;20043;-78
2022/09/21 03:26:35;;;;;;;2.42;1.23;;;8.00;99.90;;;;;;4975853;28;20058;-79
2022/09/21 03:29:02;;;;;;;1.42;0.98;;;8.00;99.90;;;;;;4975519;28;20058;-79
2022/09/21 03:31:28;;;;;;;2.55;1.10;;;8.10;99.90;;;;;;4976730;28;20070;-79
2022/09/21 03:33:54;;;;;;;2.63;1.38;;;7.70;99.90;;;;;;4976467;28;20129;-78
2022/09/21 03:36:20;;;;;;;2.10;1.00;;;7.70;99.90;;;;;;4960039;28;20480;-78
2022/09/21 03:38:46;;;;;;;2.13;1.00;;;8.10;99.90;;;;;;4975316;28;20101;-78
2022/09/21 03:41:14;;;;;;;3.53;1.05;;;7.70;99.90;;;;;;4976771;28;20533;-79
2022/09/21 03:43:39;;;;;;;1.50;0.93;;;8.20;99.90;;;;;;4975517;28;20050;-79
2022/09/21 03:46:05;;;;;;;1.83;1.00;;;7.60;99.90;;;;;;4976418;28;20057;-78
2022/09/21 03:48:31;;;;;;;4.07;1.55;;;8.30;99.90;;;;;;4976419;28;20047;-78
2022/09/21 03:50:57;;;;;;;2.38;1.23;;;7.90;99.90;;;;;;4975342;28;20050;-79
2022/09/21 03:53:23;;;;;;;3.15;1.20;;;8.00;99.90;;;;;;4976783;28;20134;-79
2022/09/21 03:55:48;;;;;;;2.03;1.10;;;7.90;99.90;;;;;;4975249;28;20050;-78
2022/09/21 03:58:14;;;;;;;1.50;1.10;;;8.10;99.90;;;;;;4975095;28;20047;-79
2022/09/21 04:00:41;;;;;;;1.48;1.17;;;8.00;99.90;;;;;;4975465;28;20055;-79
2022/09/21 04:03:07;;;;;;;1.92;1.15;;;8.00;99.90;;;;;;4976057;28;20051;-78
2022/09/21 04:05:33;;;;;;;1.73;1.25;;;7.60;99.90;;;;;;4976011;28;20553;-78
2022/09/21 04:08:00;;;;;;;2.83;1.15;;;7.70;99.90;;;;;;4974905;28;20062;-78
2022/09/21 04:10:32;;;;;;;1.92;1.20;;;7.40;99.90;;;;;;4975917;28;20047;-78
2022/09/21 04:13:03;;;;;;;2.45;1.20;;;7.50;99.90;;;;;;4976015;28;20129;-78
2022/09/21 04:15:29;;;;;;;2.60;1.20;;;7.80;99.90;;;;;;4975713;28;20077;-78
2022/09/21 04:17:55;;;;;;;1.67;1.13;;;7.80;99.90;;;;;;4975598;28;20047;-78
2022/09/21 04:20:21;;;;;;;2.35;1.30;;;7.90;99.90;;;;;;4975455;28;20042;-78
2022/09/21 04:22:46;;;;;;;2.78;1.10;;;7.80;99.90;;;;;;4975659;28;20046;-78
2022/09/21 04:25:13;;;;;;;3.13;1.33;;;7.60;99.90;;;;;;4976038;28;20113;-78
2022/09/21 04:27:39;;;;;;;6.25;1.60;;;8.20;99.90;;;;;;4974572;28;20406;-78
2022/09/21 04:30:06;;;;;;;2.72;1.30;;;7.60;99.90;;;;;;4973840;28;20113;-78
2022/09/21 04:32:31;;;;;;;3.40;1.60;;;7.50;99.90;;;;;;4975431;28;20047;-78
2022/09/21 04:34:57;;;;;;;2.67;1.20;;;7.70;99.90;;;;;;4974173;28;20057;-79
2022/09/21 04:37:23;;;;;;;2.55;1.15;;;7.40;99.90;;;;;;4975262;28;20043;-78
2022/09/21 04:39:48;;;;;;;2.53;1.30;;;7.60;99.90;;;;;;4975867;28;20047;-78
2022/09/21 04:42:14;;;;;;;2.50;1.30;;;7.80;99.90;;;;;;4975246;28;20475;-78
2022/09/21 04:44:40;;;;;;;1.83;1.23;;;7.70;99.90;;;;;;4975809;28;20058;-78
2022/09/21 04:47:06;;;;;;;3.50;1.55;;;7.70;99.90;;;;;;4974218;28;20086;-78
2022/09/21 04:49:31;;;;;;;1.65;0.95;;;7.40;99.90;;;;;;4974252;28;20058;-78
2022/09/21 04:51:57;;;;;;;1.45;1.15;;;7.90;99.90;;;;;;4975104;28;20491;-78
2022/09/21 04:54:23;;;;;;;2.28;1.30;;;7.40;99.90;;;;;;4974188;28;20058;-78
2022/09/21 04:56:49;;;;;;;1.73;1.00;;;7.40;99.90;;;;;;4975571;28;20387;-79
2022/09/21 04:59:15;;;;;;;1.45;1.10;;;7.30;99.90;;;;;;4975007;28;20043;-78
2022/09/21 05:01:40;;;;;;;2.53;1.10;;;8.80;99.90;;;;;;4975560;28;20065;-78
2022/09/21 05:04:06;;;;;;;1.10;0.95;;;7.50;99.90;;;;;;4974899;28;20050;-78
2022/09/21 05:06:33;;;;;;;1.90;1.00;;;7.60;99.90;;;;;;4975165;28;20050;-78
2022/09/21 05:11:44;;;;;;;2.20;1.10;;;7.90;99.90;;;;;;4975705;28;20375;-78
2022/09/21 05:14:10;;;;;;;1.50;0.90;;;7.40;99.90;;;;;;4974866;28;20046;-78
2022/09/21 05:16:36;;;;;;;1.63;1.10;;;7.60;99.90;;;;;;4975024;28;20047;-79
2022/09/21 05:19:02;;;;;;;1.67;0.80;;;7.20;99.90;;;;;;4974797;28;20497;-78
2022/09/21 05:21:30;;;;;;;1.33;0.90;;;7.90;99.90;;;;;;4974822;28;20053;-79
2022/09/21 05:23:57;;;;;;;1.75;1.05;;;7.70;99.90;;;;;;4974772;28;20057;-78
2022/09/21 05:26:23;;;;;;;2.70;1.08;;;7.50;99.90;;;;;;4973602;28;20082;-78
2022/09/21 05:28:49;;;;;;;2.20;1.10;;;7.40;99.90;;;;;;4974750;28;20546;-78
2022/09/21 05:31:47;;;;;;;2.20;1.02;;;7.20;99.90;;;;;;4958041;28;20042;-79
2022/09/21 05:34:24;;;;;;;1.30;0.98;;;7.10;99.90;;;;;;4975223;28;20059;-78
2022/09/21 05:37:02;;;;;;;2.22;0.95;;;7.70;99.90;;;;;;4973144;28;20509;-79
2022/09/21 05:39:28;;;;;;;1.73;1.05;;;7.30;99.90;;;;;;4975751;28;20129;-79
2022/09/21 05:41:54;;;;;;;1.20;0.90;;;7.20;99.90;;;;;;4975974;28;20133;-79
2022/09/21 05:44:21;;;;;;;1.50;1.00;;;7.10;99.90;;;;;;4978691;28;20046;-79
2022/09/21 05:46:56;;;;;;;2.97;1.50;;;7.20;99.90;;;;;;4977864;28;20062;-78
2022/09/21 05:49:31;;;;;;;2.88;1.60;;;7.20;99.90;;;;;;4978649;28;20061;-78
2022/09/21 05:52:11;;;;;;;2.40;1.30;;;7.20;99.90;;;;;;4978624;28;20046;-78
2022/09/21 05:55:03;;;;;;;1.92;1.17;;;7.20;99.90;;;;;;4979382;28;20387;-78
2022/09/21 05:57:47;;;;;;;3.30;1.27;;;7.30;99.90;;;;;;4977946;28;20514;-78
2022/09/21 06:00:21;;;;;;;2.33;1.27;;;7.80;99.90;;;;;;4978222;28;20402;-78
2022/09/21 06:03:16;;;;;;;2.50;1.20;;;7.40;99.90;;;;;;4977246;28;20055;-78
2022/09/21 06:05:42;;;;;;;1.77;1.02;;;7.30;99.90;;;;;;4978678;28;20086;-78
2022/09/21 06:08:08;;;;;;;2.38;1.30;;;7.40;99.90;;;;;;4977112;28;20061;-78
2022/09/21 06:10:34;;;;;;;2.58;1.20;;;7.20;99.90;;;;;;4978846;28;20050;-79
2022/09/21 06:13:00;;;;;;;2.97;1.30;;;8.00;99.90;;;;;;4978091;28;20109;-78
2022/09/21 06:15:26;;;;;;;2.47;1.30;;;7.30;99.90;;;;;;4976787;28;20113;-78
2022/09/21 06:17:52;;;;;;;2.55;1.45;;;7.90;99.90;;;;;;4977247;28;20043;-78
2022/09/21 06:20:17;;;;;;;3.08;1.20;;;7.90;99.90;;;;;;4978459;28;20042;-78
2022/09/21 06:22:43;;;;;;;3.67;1.30;;;7.50;99.90;;;;;;4977919;28;20129;-78
2022/09/21 06:25:09;;;;;;;2.72;1.50;;;7.90;99.90;;;;;;4978002;28;20054;-78
2022/09/21 06:27:35;;;;;;;2.40;1.17;;;7.90;99.90;;;;;;4977571;28;20482;-77
2022/09/21 06:30:00;;;;;;;2.17;1.40;;;7.80;99.90;;;;;;4976721;28;20058;-78
2022/09/21 06:32:26;;;;;;;3.85;1.58;;;7.70;99.90;;;;;;4977937;28;20055;-77
2022/09/21 06:34:52;;;;;;;2.88;1.48;;;8.00;99.90;;;;;;4977367;28;20067;-78
2022/09/21 06:37:18;;;;;;;3.28;1.15;;;7.80;99.90;;;;;;4977512;28;20070;-78
2022/09/21 06:39:44;;;;;;;3.03;1.33;;;8.50;99.90;;;;;;4944506;28;20055;-78
2022/09/21 06:42:10;;;;;;;2.58;1.10;;;8.70;99.90;;;;;;4977343;28;20055;-78
2022/09/21 06:44:36;;;;;;;2.10;1.00;;;8.30;99.90;;;;;;4976887;28;20047;-79
2022/09/21 06:47:01;;;;;;;1.35;1.02;;;8.50;99.90;;;;;;4977619;28;20520;-79
2022/09/21 06:49:27;;;;;;;3.08;1.20;;;8.10;99.90;;;;;;4977511;28;20134;-79
2022/09/21 06:51:54;;;;;;;1.55;1.08;;;8.30;99.90;;;;;;4976509;28;20046;-77
2022/09/21 06:54:20;;;;;;;1.60;0.95;;;8.50;99.90;;;;;;4976522;28;20053;-78
2022/09/21 06:56:45;;;;;;;3.70;1.45;;;8.50;99.90;;;;;;4976613;28;20047;-78
2022/09/21 06:59:11;;;;;;;2.95;0.90;;;8.60;99.90;;;;;;4976435;28;20075;-77
2022/09/21 07:01:37;;;;;;;2.30;1.05;;;8.50;99.90;;;;;;4977258;28;20399;-79
2022/09/21 07:04:02;;;;;;;2.70;1.20;;;8.70;99.90;;;;;;4977228;28;20050;-78
2022/09/21 07:06:28;;;;;;;3.63;1.42;;;8.80;99.90;;;;;;4960453;28;20050;-78
2022/09/21 07:08:54;;;;;;;5.00;1.58;;;8.80;99.90;;;;;;4976856;28;20483;-79
2022/09/21 07:11:22;;;;;;;3.60;1.50;;;9.00;99.90;;;;;;4976103;28;20201;-78
2022/09/21 07:13:49;;;;;;;1.77;1.20;;;9.10;99.90;;;;;;4960308;28;20059;-77
2022/09/21 07:16:15;;;;;;;3.20;1.13;;;8.80;99.90;;;;;;4976832;28;20185;-79
2022/09/21 07:18:41;;;;;;;4.20;1.38;;;9.10;99.90;;;;;;4976930;28;20415;-78
2022/09/21 07:21:09;;;;;;;3.67;1.20;;;9.00;99.90;;;;;;4976239;28;20047;-78
2022/09/21 07:23:36;;;;;;;2.33;1.02;;;9.40;99.90;;;;;;4976208;28;20137;-78
2022/09/21 07:26:05;;;;;;;3.30;1.60;;;9.10;99.90;;;;;;4975427;28;20498;-78
2022/09/21 07:28:31;;;;;;;4.95;1.55;;;9.10;99.90;;;;;;4976767;28;20038;-77
2022/09/21 07:30:58;;;;;;;5.22;1.77;;;9.20;99.90;;;;;;4975664;28;20053;-76
2022/09/21 07:33:25;;;;;;;5.05;1.60;;;9.30;99.90;;;;;;4975550;28;20055;-76
2022/09/21 07:35:52;;;;;;;2.92;1.40;;;9.40;99.90;;;;;;4976450;28;20058;-76
2022/09/21 07:38:18;;;;;;;4.35;1.30;;;9.50;99.90;;;;;;4975388;28;20049;-77
2022/09/21 07:40:44;;;;;;;3.70;1.88;;;9.50;99.90;;;;;;4976572;28;20134;-77
2022/09/21 07:43:10;;;;;;;5.38;1.60;;;9.80;99.90;;;;;;4976546;28;20090;-78
2022/09/21 07:45:36;;;;;;;6.28;1.52;;;9.90;99.90;;;;;;4975486;28;20050;-77
2022/09/21 07:48:06;;;;;;;4.57;1.55;;;10.20;99.90;;;;;;4975255;28;20050;-76
2022/09/21 07:50:33;;;;;;;3.55;1.88;;;9.90;99.90;;;;;;4976417;28;20098;-76
2022/09/21 07:52:59;;;;;;;4.30;2.10;;;9.90;99.90;;;;;;4976833;28;20113;-76
2022/09/21 07:55:26;;;;;;;6.53;2.65;;;10.00;99.90;;;;;;4976313;28;20051;-76
2022/09/21 08:00:37;;;;;;;4.18;1.90;;;10.20;99.90;;;;;;4976770;28;20043;-76
2022/09/21 08:03:03;;;;;;;4.32;1.52;;;10.40;99.90;;;;;;4976070;28;20051;-77
2022/09/21 08:05:30;;;;;;;5.07;1.42;;;10.30;99.90;;;;;;4976063;28;20054;-76
2022/09/21 08:07:56;;;;;;;4.35;1.40;;;10.30;99.90;;;;;;4974979;28;20125;-76
2022/09/21 08:10:23;;;;;;;6.40;2.00;;;10.50;99.90;;;;;;4975909;28;20054;-76
2022/09/21 08:12:48;;;;;;;2.72;1.60;;;10.50;99.90;;;;;;4976009;28;20402;-76
2022/09/21 08:15:14;;;;;;;6.88;1.50;;;10.60;99.90;;;;;;4975912;28;20050;-76
2022/09/21 08:17:40;;;;;;;6.95;1.25;;;10.70;99.90;;;;;;4959484;28;20054;-76
2022/09/21 08:20:06;;;;;;;3.03;1.20;;;10.90;99.90;;;;;;4974804;28;20050;-76
2022/09/21 08:22:32;;;;;;;5.88;1.73;;;10.80;99.90;;;;;;4975859;28;20054;-76
2022/09/21 08:24:57;;;;;;;6.43;1.65;;;10.90;99.90;;;;;;4975755;28;20075;-76
2022/09/21 08:27:26;;;;;;;6.07;1.55;;;11.40;99.90;;;;;;4975701;28;20050;-76
2022/09/21 08:29:51;;;;;;;5.50;1.45;;;11.10;99.90;;;;;;4975642;28;20053;-76
2022/09/21 08:32:17;;;;;;;6.50;1.75;;;11.20;99.90;;;;;;4975802;28;20047;-76
2022/09/21 08:34:43;;;;;;;7.95;1.40;;;11.40;99.90;;;;;;4974254;28;20054;-76
2022/09/21 08:37:08;;;;;;;4.55;0.80;;;11.40;99.90;;;;;;4982454;28;20403;-77
2022/09/21 08:39:34;;;;;;;4.63;0.80;;;11.50;99.90;;;;;;4982758;28;20058;-75
2022/09/21 08:42:00;;;;;;;5.70;1.00;;;11.40;99.90;;;;;;4977305;28;20109;-76
2022/09/21 08:44:46;;;;;;;9.07;1.77;;;11.70;99.90;;;;;;4975223;28;20042;-76
2022/09/21 08:47:20;;;;;;;5.57;1.05;;;11.70;99.90;;;;;;4975365;28;20047;-79
2022/09/21 08:49:56;;;;;;;5.07;0.93;;;11.80;99.90;;;;;;4974966;28;20043;-76
2022/09/21 08:52:23;;;;;;;3.58;0.60;;;;;;;;;;4975034;28;20046;-75
2022/09/21 08:55:04;;;;;;;2.75;0.60;;;11.90;99.90;;;;;;4974769;28;20054;-76
2022/09/21 08:57:32;;;;;;;4.55;0.60;;;12.00;99.90;;;;;;4974778;28;20043;-77
2022/09/21 08:59:59;;;;;;;4.47;0.60;;;12.10;99.90;;;;;;4973565;28;20159;-77
2022/09/21 09:03:01;;;;;;;4.97;0.80;;;12.20;99.90;;;;;;4973974;28;20057;-77
2022/09/21 09:05:44;;;;;;;3.05;0.70;;;12.30;99.90;;;;;;4957892;28;20508;-77
2022/09/21 09:08:18;;;;;;;4.55;0.90;;;12.50;99.90;;;;;;4974888;28;20126;-76
2022/09/21 09:11:15;;;;;;;4.38;0.70;;;12.40;99.90;;;;;;4974883;28;20050;-77
2022/09/21 09:14:11;;;;;;;3.70;0.80;;;12.50;99.90;;;;;;4970531;28;20134;-76
2022/09/21 09:17:05;;;;;;;3.78;0.70;;;12.70;99.90;;;;;;4921885;28;20068;-77
2022/09/21 09:19:37;;;;;;;4.38;0.60;;;12.60;99.90;;;;;;4974820;28;20062;-77
2022/09/21 09:22:06;;;;;;;2.28;0.50;;;12.60;99.90;;;;;;4973425;28;20043;-77
2022/09/21 09:25:02;;;;;;;4.15;0.47;;;12.60;99.90;;;;;;4974791;28;20049;-76
2022/09/21 09:27:44;;;;;;;3.80;0.80;;;12.70;99.90;;;;;;4972206;28;20055;-77
2022/09/21 09:30:16;;;;;;;3.20;0.50;;;12.80;99.90;;;;;;4974740;28;20109;-77
2022/09/21 09:32:59;;;;;;;2.58;0.35;;;12.90;99.90;;;;;;4973855;28;20054;-76
2022/09/21 09:35:25;;;;;;;3.33;0.50;;;12.80;99.90;;;;;;4974318;28;20063;-76
2022/09/21 09:38:10;;;;;;;3.28;0.70;;;12.90;99.90;;;;;;4975457;28;20368;-76
2022/09/21 09:41:02;;;;;;;1.52;0.50;;;12.90;99.90;;;;;;4975037;28;20407;-77
2022/09/21 09:43:46;;;;;;;2.38;0.40;;;13.30;99.90;;;;;;4973707;28;20090;-77
2022/09/21 09:46:17;;;;;;;3.10;0.45;;;13.00;99.90;;;;;;4974693;28;20046;-77
2022/09/21 09:49:02;;;;;;;7.70;1.40;;;13.00;99.90;;;;;;4974597;28;20039;-77
2022/09/21 09:51:28;;;;;;;4.90;0.55;;;13.00;99.90;;;;;;4974617;28;20046;-77
2022/09/21 09:53:58;;;;;;;2.85;0.80;;;13.10;99.90;;;;;;4974525;28;20050;-77
2022/09/21 09:56:24;;;;;;;4.28;0.40;;;13.10;99.90;;;;;;4974117;28;20059;-77
2022/09/21 09:58:56;;;;;;;4.95;0.30;;;13.10;99.90;;;;;;4974024;28;20238;-77
2022/09/21 10:01:42;;;;;;;2.10;0.50;;;13.30;99.90;;;;;;4974384;28;20069;-77
2022/09/21 10:04:10;;;;;;;5.97;0.50;;;13.10;99.90;;;;;;4974415;28;20054;-77
2022/09/21 10:06:37;;;;;;;2.72;0.50;;;13.20;99.90;;;;;;4973684;28;20069;-76
2022/09/21 10:09:23;;;;;;;3.10;0.60;;;13.40;99.90;;;;;;4975078;28;20050;-77
2022/09/21 10:11:51;;;;;;;1.88;0.43;;;13.30;99.90;;;;;;4974536;28;20089;-77
2022/09/21 10:14:22;;;;;;;3.10;0.80;;;13.40;99.90;;;;;;4973720;28;20460;-77
2022/09/21 10:16:53;;;;;;;4.45;0.40;;;13.50;99.90;;;;;;4974362;28;20134;-77
2022/09/21 10:19:24;;;;;;;2.25;0.52;;;13.50;99.90;;;;;;4974452;28;20093;-77
2022/09/21 10:22:17;;;;;;;2.22;0.35;;;13.60;99.90;;;;;;4974613;28;20051;-76
2022/09/21 10:24:50;;;;;;;1.90;0.30;;;13.60;99.90;;;;;;4974045;28;20475;-76
2022/09/21 10:27:20;;;;;;;2.92;0.40;;;13.70;99.90;;;;;;4973659;28;20054;-77
2022/09/21 10:29:47;;;;;;;2.78;0.40;;;13.90;99.90;;;;;;4976724;28;20097;-76
2022/09/21 10:32:25;;;;;;;2.70;0.40;;;13.80;99.90;;;;;;4976799;28;20483;-77
2022/09/21 10:35:09;;;;;;;6.05;0.57;;;13.80;99.90;;;;;;4977909;28;20170;-77
2022/09/21 10:37:43;;;;;;;4.70;0.40;;;13.90;99.90;;;;;;4977699;28;20097;-76
2022/09/21 10:40:21;;;;;;;2.45;0.30;;;14.00;99.90;;;;;;4977816;28;20051;-77
2022/09/21 10:42:52;;;;;;;1.05;0.28;;;14.10;99.90;;;;;;4977519;28;20050;-76
2022/09/21 10:45:21;;;;;;;1.98;0.40;;;14.00;99.90;;;;;;4977642;28;20130;-76
2022/09/21 10:48:16;;;;;;;2.78;0.30;;;14.20;99.90;;;;;;4976925;28;20089;-76
2022/09/21 10:50:50;;;;;;;2.60;0.20;;;14.10;99.90;;;;;;4976091;28;20058;-76
2022/09/21 10:53:22;;;;;;;3.65;0.40;;;14.40;99.90;;;;;;4977816;28;20065;-76
2022/09/21 10:56:15;;;;;;;2.88;0.50;;;14.40;99.90;;;;;;4977447;28;20043;-75
2022/09/21 10:59:19;;;;;;;1.58;0.38;;;14.30;99.90;;;;;;4977411;28;20464;-76
2022/09/21 11:01:47;;;;;;;2.38;0.55;;;14.50;99.90;;;;;;4976682;28;20050;-77
2022/09/21 11:04:33;;;;;;;2.75;0.40;;;14.70;99.90;;;;;;4976297;28;20051;-76
2022/09/21 11:07:31;;;;;;;2.60;0.30;;;14.40;99.90;;;;;;4977388;28;20050;-76
2022/09/21 11:10:21;;;;;;;2.55;0.30;;;14.60;99.90;;;;;;4977103;28;20063;-76
2022/09/21 11:13:15;;;;;;;2.90;0.50;;;14.70;99.90;;;;;;4977324;28;20054;-77
2022/09/21 11:16:15;;;;;;;1.85;0.40;;;14.60;99.90;;;;;;4976477;28;20376;-76
2022/09/21 11:18:58;;;;;;;3.47;0.40;;;14.70;99.90;;;;;;4975865;28;20082;-76
2022/09/21 11:21:39;;;;;;;1.73;0.50;;;14.60;99.90;;;;;;4977138;28;20466;-77
2022/09/21 11:24:19;;;;;;;1.73;0.30;;;14.70;99.90;;;;;;4976950;28;20045;-76
2022/09/21 11:27:03;;;;;;;2.13;0.30;;;14.60;99.90;;;;;;4976926;28;20038;-76
2022/09/21 11:29:53;;;;;;;4.80;0.60;;;14.70;99.90;;;;;;4977198;28;20482;-77
2022/09/21 11:32:43;;;;;;;1.20;0.30;;;14.50;99.90;;;;;;4977195;28;20467;-77
2022/09/21 11:35:21;;;;;;;4.40;0.40;;;14.60;99.90;;;;;;4976732;28;20193;-77
2022/09/21 11:37:54;;;;;;;3.15;0.40;;;14.70;99.90;;;;;;4976759;28;20490;-77
2022/09/21 11:40:30;;;;;;;;;;;14.70;99.90;;;;;;4975892;28;20094;-76
2022/09/21 11:43:18;;;;;;;1.63;0.30;;;14.70;99.90;;;;;;4976510;28;19918;-77
2022/09/21 11:46:13;;;;;;;2.25;0.30;;;14.90;99.90;;;;;;4976618;28;20046;-77
2022/09/21 11:48:55;;;;;;;1.25;0.20;;;14.80;99.90;;;;;;4977218;28;20043;-77
2022/09/21 11:52:13;;;;;;;3.45;0.30;;;15.00;99.90;;;;;;4975652;28;20074;-77
2022/09/21 11:55:02;;;;;;;2.38;0.30;;;14.90;99.90;;;;;;4958867;28;20066;-77
2022/09/21 11:57:40;;;;;;;2.58;0.32;;;15.10;99.90;;;;;;4968372;28;20133;-77
2022/09/21 12:00:18;;;;;;;4.78;0.40;;;15.10;99.90;;;;;;4977072;28;20047;-77
2022/09/21 12:02:59;;;;;;;2.13;0.30;;;15.10;99.90;;;;;;4976381;28;20051;-77
2022/09/21 12:05:37;;;;;;;5.32;0.30;;;15.20;99.90;;;;;;4977232;28;20051;-76
2022/09/21 12:08:40;;;;;;;3.08;0.40;;;15.00;99.90;;;;;;4976266;28;20082;-77
2022/09/21 12:11:21;;;;;;;1.88;0.30;;;15.10;99.90;;;;;;4976101;28;20090;-77
2022/09/21 12:14:11;;;;;;;1.35;0.20;;;15.00;99.90;;;;;;4974791;28;20059;-77
2022/09/21 12:17:20;;;;;;;3.28;0.30;;;15.10;99.90;;;;;;4975295;28;20142;-77
2022/09/21 12:20:00;;;;;;;2.53;0.32;;;15.00;99.90;;;;;;4975254;28;20055;-77
2022/09/21 12:22:28;;;;;;;1.90;0.20;;;15.20;99.90;;;;;;4976170;28;20051;-78
2022/09/21 12:25:25;;;;;;;0.95;0.30;;;15.20;99.90;;;;;;4976123;28;20050;-77
2022/09/21 12:28:01;;;;;;;4.13;0.40;;;15.10;99.90;;;;;;4975264;28;20054;-77
2022/09/21 12:30:30;;;;;;;3.25;0.20;;;15.40;99.90;;;;;;4975740;28;20134;-78
2022/09/21 12:32:58;;;;;;;4.70;0.40;;;15.10;99.90;;;;;;4974447;28;20048;-77
2022/09/21 12:35:36;;;;;;;2.00;0.20;;;15.20;99.90;;;;;;4976013;28;20073;-77
2022/09/21 12:38:23;;;;;;;1.90;0.30;;;15.20;99.90;;;;;;4975549;28;20058;-77
2022/09/21 12:40:52;;;;;;;0.93;0.10;;;15.20;99.90;;;;;;4975576;28;20051;-77
2022/09/21 12:43:52;;;;;;;2.83;0.20;;;15.40;99.90;;;;;;4974802;28;20448;-77
2022/09/21 12:46:28;;;;;;;2.78;0.30;;;15.30;99.90;;;;;;4974786;28;20086;-77
2022/09/21 12:48:55;;;;;;;0.75;0.20;;;15.50;99.90;;;;;;4976218;28;20376;-77
2022/09/21 12:51:31;;;;;;;0.77;0.20;;;15.60;99.90;;;;;;4973517;28;20490;-77
2022/09/21 12:54:00;;;;;;;2.47;0.47;;;15.50;99.90;;;;;;4974677;28;20097;-78
2022/09/21 12:56:39;;;;;;;1.55;0.20;;;;;;;;;;4975017;28;20480;-78
2022/09/21 12:59:34;;;;;;;0.98;0.20;;;15.60;99.90;;;;;;4975246;28;20130;-78
2022/09/21 13:02:03;;;;;;;1.15;0.30;;;15.40;99.90;;;;;;4975293;28;20123;-77
2022/09/21 13:04:40;;;;;;;3.58;0.47;;;15.50;99.90;;;;;;4975616;28;20506;-79
2022/09/21 13:07:12;;;;;;;1.85;0.30;;;15.60;99.90;;;;;;4975454;28;20122;-79
2022/09/21 13:09:43;;;;;;;1.05;0.20;;;15.80;99.90;;;;;;4975040;28;20055;-78
2022/09/21 13:12:37;;;;;;;1.02;0.20;;;15.80;99.90;;;;;;4975058;28;20050;-78
2022/09/21 13:15:23;;;;;;;2.05;0.30;;;15.90;99.90;;;;;;4973987;28;20045;-78
2022/09/21 13:17:58;;;;;;;1.67;0.30;;;15.70;99.90;;;;;;4975683;28;20464;-78
2022/09/21 13:20:25;;;;;;;1.95;0.13;;;15.80;99.90;;;;;;4976014;28;20069;-78
2022/09/21 13:23:01;;;;;;;1.38;0.20;;;16.00;99.90;;;;;;4974316;28;20093;-77
2022/09/21 13:25:30;;;;;;;1.50;0.20;;;15.80;99.90;;;;;;4974869;28;20066;-79
2022/09/21 13:27:59;;;;;;;0.60;0.20;;;15.80;99.90;;;;;;4975422;28;20046;-78